sensor_id;sensor_type;location;lat;lon;timestamp;temperature;humidity
20839;DHT22;10580;51.092;6.828;2023-03-04T00:01:41;3.80;99.90
20839;DHT22;10580;51.092;6.828;2023-03-04T00:04:07;3.80;99.90
20839;DHT22;10580;51.092;6.828;2023-03-04T00:06:32;3.80;99.90
20839;DHT22;10580;51.092;6.828;2023-03-04T00:08:58;3.80;99.90
20839;DHT22;10580;51.092;6.828;2023-03-04T00:11:24;3.80;99.90
20839;DHT22;10580;51.092;6.828;2023-03-04T00:13:49;3.80;99.90
20839;DHT22;10580;51.092;6.828;2023-03-04T00:16:15;3.90;99.90
20839;DHT22;10580;51.092;6.828;2023-03-04T00:18:41;3.90;99.90
20839;DHT22;10580;51.092;6.828;2023-03-04T00:21:06;3.90;99.90
20839;DHT22;10580;51.092;6.828;2023-03-04T00:23:32;3.90;99.90
20839;DHT22;10580;51.092;6.828;2023-03-04T00:25:57;3.90;99.90
20839;DHT22;10580;51.092;6.828;2023-03-04T00:28:23;3.90;99.90
20839;DHT22;10580;51.092;6.828;2023-03-04T00:30:48;3.90;99.90
20839;DHT22;10580;51.092;6.828;2023-03-04T00:33:14;3.90;99.90
20839;DHT22;10580;51.092;6.828;2023-03-04T00:35:40;3.90;99.90
20839;DHT22;10580;51.092;6.828;2023-03-04T00:38:05;4.00;99.90
20839;DHT22;10580;51.092;6.828;2023-03-04T00:40:31;4.00;99.90
20839;DHT22;10580;51.092;6.828;2023-03-04T00:42:56;4.00;98.50
20839;DHT22;10580;51.092;6.828;2023-03-04T00:45:22;3.90;97.20
20839;DHT22;10580;51.092;6.828;2023-03-04T00:47:47;3.90;96.80
20839;DHT22;10580;51.092;6.828;2023-03-04T00:50:13;4.00;96.40
20839;DHT22;10580;51.092;6.828;2023-03-04T00:52:39;4.00;91.50
20839;DHT22;10580;51.092;6.828;2023-03-04T00:55:05;4.00;91.60
20839;DHT22;10580;51.092;6.828;2023-03-04T00:57:31;4.10;85.30
20839;DHT22;10580;51.092;6.828;2023-03-04T00:59:57;4.10;83.30
20839;DHT22;10580;51.092;6.828;2023-03-04T01:02:22;4.10;81.90
20839;DHT22;10580;51.092;6.828;2023-03-04T01:04:48;4.10;75.10
20839;DHT22;10580;51.092;6.828;2023-03-04T01:07:13;4.10;77.60
20839;DHT22;10580;51.092;6.828;2023-03-04T01:09:39;4.10;71.10
20839;DHT22;10580;51.092;6.828;2023-03-04T01:12:05;4.10;70.90
20839;DHT22;10580;51.092;6.828;2023-03-04T01:14:30;4.10;70.10
20839;DHT22;10580;51.092;6.828;2023-03-04T01:16:56;4.10;71.00
20839;DHT22;10580;51.092;6.828;2023-03-04T01:19:21;4.10;73.60
20839;DHT22;10580;51.092;6.828;2023-03-04T01:21:47;4.10;76.70
20839;DHT22;10580;51.092;6.828;2023-03-04T01:24:13;4.10;77.40
20839;DHT22;10580;51.092;6.828;2023-03-04T01:26:38;4.10;73.90
20839;DHT22;10580;51.092;6.828;2023-03-04T01:29:04;4.10;72.60
20839;DHT22;10580;51.092;6.828;2023-03-04T01:31:29;4.10;70.80
20839;DHT22;10580;51.092;6.828;2023-03-04T01:33:55;4.20;69.50
20839;DHT22;10580;51.092;6.828;2023-03-04T01:36:20;4.10;62.10
20839;DHT22;10580;51.092;6.828;2023-03-04T01:38:46;4.10;64.90
20839;DHT22;10580;51.092;6.828;2023-03-04T01:41:12;4.20;62.10
20839;DHT22;10580;51.092;6.828;2023-03-04T01:43:38;4.20;63.60
20839;DHT22;10580;51.092;6.828;2023-03-04T01:46:05;4.20;59.80
20839;DHT22;10580;51.092;6.828;2023-03-04T01:48:33;4.20;59.20
20839;DHT22;10580;51.092;6.828;2023-03-04T01:51:02;4.20;52.60
20839;DHT22;10580;51.092;6.828;2023-03-04T01:53:29;4.20;54.00
20839;DHT22;10580;51.092;6.828;2023-03-04T01:56:09;4.20;46.10
20839;DHT22;10580;51.092;6.828;2023-03-04T01:58:35;4.20;46.60
20839;DHT22;10580;51.092;6.828;2023-03-04T02:01:01;4.20;50.90
20839;DHT22;10580;51.092;6.828;2023-03-04T02:03:26;4.20;45.80
20839;DHT22;10580;51.092;6.828;2023-03-04T02:05:52;4.20;48.50
20839;DHT22;10580;51.092;6.828;2023-03-04T02:08:20;4.20;49.00
20839;DHT22;10580;51.092;6.828;2023-03-04T02:10:47;4.20;42.80
20839;DHT22;10580;51.092;6.828;2023-03-04T02:13:14;4.20;44.30
20839;DHT22;10580;51.092;6.828;2023-03-04T02:15:40;4.20;41.00
20839;DHT22;10580;51.092;6.828;2023-03-04T02:18:20;4.30;40.10
20839;DHT22;10580;51.092;6.828;2023-03-04T02:20:53;4.30;41.60
20839;DHT22;10580;51.092;6.828;2023-03-04T02:23:46;4.30;41.70
20839;DHT22;10580;51.092;6.828;2023-03-04T02:26:26;4.30;40.00
20839;DHT22;10580;51.092;6.828;2023-03-04T02:28:53;4.30;41.10
20839;DHT22;10580;51.092;6.828;2023-03-04T02:34:03;4.30;38.60
20839;DHT22;10580;51.092;6.828;2023-03-04T02:36:30;4.30;38.30
20839;DHT22;10580;51.092;6.828;2023-03-04T02:39:02;4.40;40.20
20839;DHT22;10580;51.092;6.828;2023-03-04T02:41:29;4.40;41.30
20839;DHT22;10580;51.092;6.828;2023-03-04T02:43:55;4.40;38.90
20839;DHT22;10580;51.092;6.828;2023-03-04T02:46:21;4.40;34.20
20839;DHT22;10580;51.092;6.828;2023-03-04T02:48:48;4.40;33.60
20839;DHT22;10580;51.092;6.828;2023-03-04T02:51:14;4.40;36.40
20839;DHT22;10580;51.092;6.828;2023-03-04T02:53:39;4.40;39.80
20839;DHT22;10580;51.092;6.828;2023-03-04T02:56:05;4.30;40.00
20839;DHT22;10580;51.092;6.828;2023-03-04T02:58:31;4.30;43.60
20839;DHT22;10580;51.092;6.828;2023-03-04T03:00:56;4.40;44.60
20839;DHT22;10580;51.092;6.828;2023-03-04T03:03:22;4.40;44.10
20839;DHT22;10580;51.092;6.828;2023-03-04T03:05:48;4.30;43.00
20839;DHT22;10580;51.092;6.828;2023-03-04T03:08:13;4.40;44.10
20839;DHT22;10580;51.092;6.828;2023-03-04T03:10:39;4.40;49.60
20839;DHT22;10580;51.092;6.828;2023-03-04T03:13:05;4.40;47.40
20839;DHT22;10580;51.092;6.828;2023-03-04T03:15:30;4.40;47.00
20839;DHT22;10580;51.092;6.828;2023-03-04T03:17:56;4.40;41.80
20839;DHT22;10580;51.092;6.828;2023-03-04T03:20:21;4.40;40.90
20839;DHT22;10580;51.092;6.828;2023-03-04T03:22:47;4.50;42.50
20839;DHT22;10580;51.092;6.828;2023-03-04T03:25:14;4.50;44.40
20839;DHT22;10580;51.092;6.828;2023-03-04T03:27:40;4.50;43.60
20839;DHT22;10580;51.092;6.828;2023-03-04T03:30:09;4.50;43.00
20839;DHT22;10580;51.092;6.828;2023-03-04T03:32:35;4.50;43.90
20839;DHT22;10580;51.092;6.828;2023-03-04T03:35:02;4.50;45.80
20839;DHT22;10580;51.092;6.828;2023-03-04T03:37:27;4.50;48.50
20839;DHT22;10580;51.092;6.828;2023-03-04T03:39:53;4.50;49.30
20839;DHT22;10580;51.092;6.828;2023-03-04T03:42:18;4.40;48.80
20839;DHT22;10580;51.092;6.828;2023-03-04T03:44:44;4.40;49.90
20839;DHT22;10580;51.092;6.828;2023-03-04T03:47:09;4.50;50.20
20839;DHT22;10580;51.092;6.828;2023-03-04T03:49:35;4.50;50.50
20839;DHT22;10580;51.092;6.828;2023-03-04T03:52:00;4.50;47.10
20839;DHT22;10580;51.092;6.828;2023-03-04T03:54:26;4.50;42.70
20839;DHT22;10580;51.092;6.828;2023-03-04T03:56:52;4.60;38.90
20839;DHT22;10580;51.092;6.828;2023-03-04T03:59:17;4.50;38.20
20839;DHT22;10580;51.092;6.828;2023-03-04T04:01:43;4.60;33.70
20839;DHT22;10580;51.092;6.828;2023-03-04T04:04:08;4.60;31.60
20839;DHT22;10580;51.092;6.828;2023-03-04T04:06:34;4.60;27.50
20839;DHT22;10580;51.092;6.828;2023-03-04T04:08:59;4.60;27.60
20839;DHT22;10580;51.092;6.828;2023-03-04T04:11:25;4.60;25.00
20839;DHT22;10580;51.092;6.828;2023-03-04T04:13:50;4.60;26.60
20839;DHT22;10580;51.092;6.828;2023-03-04T04:16:16;4.60;25.00
20839;DHT22;10580;51.092;6.828;2023-03-04T04:18:42;4.60;20.10
20839;DHT22;10580;51.092;6.828;2023-03-04T04:21:08;4.60;19.80
20839;DHT22;10580;51.092;6.828;2023-03-04T04:23:33;4.60;19.80
20839;DHT22;10580;51.092;6.828;2023-03-04T04:25:59;4.60;19.90
20839;DHT22;10580;51.092;6.828;2023-03-04T04:28:25;4.60;20.80
20839;DHT22;10580;51.092;6.828;2023-03-04T04:30:50;4.60;14.10
20839;DHT22;10580;51.092;6.828;2023-03-04T04:33:16;4.60;10.10
20839;DHT22;10580;51.092;6.828;2023-03-04T04:35:41;4.60;3.60
20839;DHT22;10580;51.092;6.828;2023-03-04T04:38:07;4.60;1.90
20839;DHT22;10580;51.092;6.828;2023-03-04T04:40:34;4.60;1.00
20839;DHT22;10580;51.092;6.828;2023-03-04T04:42:59;4.70;4.80
20839;DHT22;10580;51.092;6.828;2023-03-04T04:45:25;4.70;1.00
20839;DHT22;10580;51.092;6.828;2023-03-04T04:47:52;4.70;1.00
20839;DHT22;10580;51.092;6.828;2023-03-04T04:50:17;4.70;1.00
20839;DHT22;10580;51.092;6.828;2023-03-04T04:52:43;4.70;4.30
20839;DHT22;10580;51.092;6.828;2023-03-04T04:55:09;4.80;5.60
20839;DHT22;10580;51.092;6.828;2023-03-04T04:57:35;4.80;2.30
20839;DHT22;10580;51.092;6.828;2023-03-04T05:00:02;4.80;1.00
20839;DHT22;10580;51.092;6.828;2023-03-04T05:02:28;4.80;2.90
20839;DHT22;10580;51.092;6.828;2023-03-04T05:04:53;4.80;4.50
20839;DHT22;10580;51.092;6.828;2023-03-04T05:07:19;4.80;5.20
20839;DHT22;10580;51.092;6.828;2023-03-04T05:09:44;4.80;5.10
20839;DHT22;10580;51.092;6.828;2023-03-04T05:12:10;4.80;5.30
20839;DHT22;10580;51.092;6.828;2023-03-04T05:14:36;4.80;4.10
20839;DHT22;10580;51.092;6.828;2023-03-04T05:17:01;4.80;6.90
20839;DHT22;10580;51.092;6.828;2023-03-04T05:19:27;4.80;6.40
20839;DHT22;10580;51.092;6.828;2023-03-04T05:21:53;4.80;6.00
20839;DHT22;10580;51.092;6.828;2023-03-04T05:24:18;4.70;9.90
20839;DHT22;10580;51.092;6.828;2023-03-04T05:26:44;4.80;11.90
20839;DHT22;10580;51.092;6.828;2023-03-04T05:29:10;4.80;11.90
20839;DHT22;10580;51.092;6.828;2023-03-04T05:31:35;4.80;13.30
20839;DHT22;10580;51.092;6.828;2023-03-04T05:34:01;4.80;12.40
20839;DHT22;10580;51.092;6.828;2023-03-04T05:36:26;4.80;14.00
20839;DHT22;10580;51.092;6.828;2023-03-04T05:38:52;4.80;16.10
20839;DHT22;10580;51.092;6.828;2023-03-04T05:41:17;4.80;15.40
20839;DHT22;10580;51.092;6.828;2023-03-04T05:43:47;4.80;13.50
20839;DHT22;10580;51.092;6.828;2023-03-04T05:46:14;4.80;15.10
20839;DHT22;10580;51.092;6.828;2023-03-04T05:48:40;4.80;20.10
20839;DHT22;10580;51.092;6.828;2023-03-04T05:51:06;4.80;22.30
20839;DHT22;10580;51.092;6.828;2023-03-04T05:53:31;4.80;21.20
20839;DHT22;10580;51.092;6.828;2023-03-04T05:55:57;4.80;23.60
20839;DHT22;10580;51.092;6.828;2023-03-04T05:58:24;4.80;24.30
20839;DHT22;10580;51.092;6.828;2023-03-04T06:00:50;4.80;26.90
20839;DHT22;10580;51.092;6.828;2023-03-04T06:03:18;4.70;24.60
20839;DHT22;10580;51.092;6.828;2023-03-04T06:05:43;4.80;23.00
20839;DHT22;10580;51.092;6.828;2023-03-04T06:08:10;4.80;21.60
20839;DHT22;10580;51.092;6.828;2023-03-04T06:10:37;4.70;16.40
20839;DHT22;10580;51.092;6.828;2023-03-04T06:13:03;4.70;11.90
20839;DHT22;10580;51.092;6.828;2023-03-04T06:15:29;4.70;5.80
20839;DHT22;10580;51.092;6.828;2023-03-04T06:17:55;4.80;9.00
20839;DHT22;10580;51.092;6.828;2023-03-04T06:20:20;4.80;13.90
20839;DHT22;10580;51.092;6.828;2023-03-04T06:22:46;4.80;17.20
20839;DHT22;10580;51.092;6.828;2023-03-04T06:25:11;4.80;21.40
20839;DHT22;10580;51.092;6.828;2023-03-04T06:27:37;4.80;25.20
20839;DHT22;10580;51.092;6.828;2023-03-04T06:30:03;4.80;25.30
20839;DHT22;10580;51.092;6.828;2023-03-04T06:32:29;4.80;27.00
20839;DHT22;10580;51.092;6.828;2023-03-04T06:34:55;4.80;28.40
20839;DHT22;10580;51.092;6.828;2023-03-04T06:37:20;4.80;28.70
20839;DHT22;10580;51.092;6.828;2023-03-04T06:39:46;4.80;30.30
20839;DHT22;10580;51.092;6.828;2023-03-04T06:42:11;4.90;29.80
20839;DHT22;10580;51.092;6.828;2023-03-04T06:44:37;4.80;29.10
20839;DHT22;10580;51.092;6.828;2023-03-04T06:47:03;4.80;30.00
20839;DHT22;10580;51.092;6.828;2023-03-04T06:49:29;4.80;30.70
20839;DHT22;10580;51.092;6.828;2023-03-04T06:51:54;4.80;30.00
20839;DHT22;10580;51.092;6.828;2023-03-04T06:54:20;4.80;30.40
20839;DHT22;10580;51.092;6.828;2023-03-04T06:56:46;4.80;28.10
20839;DHT22;10580;51.092;6.828;2023-03-04T06:59:11;4.90;29.80
20839;DHT22;10580;51.092;6.828;2023-03-04T07:01:37;4.90;23.70
20839;DHT22;10580;51.092;6.828;2023-03-04T07:04:03;4.90;25.20
20839;DHT22;10580;51.092;6.828;2023-03-04T07:06:29;4.90;25.90
20839;DHT22;10580;51.092;6.828;2023-03-04T07:08:55;4.90;21.80
20839;DHT22;10580;51.092;6.828;2023-03-04T07:11:21;4.90;23.00
20839;DHT22;10580;51.092;6.828;2023-03-04T07:13:47;5.00;25.10
20839;DHT22;10580;51.092;6.828;2023-03-04T07:16:19;4.90;26.30
20839;DHT22;10580;51.092;6.828;2023-03-04T07:18:45;4.90;18.80
20839;DHT22;10580;51.092;6.828;2023-03-04T07:21:11;5.00;11.40
20839;DHT22;10580;51.092;6.828;2023-03-04T07:23:37;5.00;11.60
20839;DHT22;10580;51.092;6.828;2023-03-04T07:26:03;5.00;11.90
20839;DHT22;10580;51.092;6.828;2023-03-04T07:28:29;5.00;9.40
20839;DHT22;10580;51.092;6.828;2023-03-04T07:30:55;5.00;10.30
20839;DHT22;10580;51.092;6.828;2023-03-04T07:33:20;5.10;9.30
20839;DHT22;10580;51.092;6.828;2023-03-04T07:35:46;5.10;4.60
20839;DHT22;10580;51.092;6.828;2023-03-04T07:38:11;5.10;2.70
20839;DHT22;10580;51.092;6.828;2023-03-04T07:40:37;5.10;1.00
20839;DHT22;10580;51.092;6.828;2023-03-04T07:43:03;5.10;1.60
20839;DHT22;10580;51.092;6.828;2023-03-04T07:45:28;5.10;5.70
20839;DHT22;10580;51.092;6.828;2023-03-04T07:47:54;5.20;5.30
20839;DHT22;10580;51.092;6.828;2023-03-04T07:50:21;5.20;5.20
20839;DHT22;10580;51.092;6.828;2023-03-04T07:52:48;5.20;7.80
20839;DHT22;10580;51.092;6.828;2023-03-04T07:55:15;5.20;6.20
20839;DHT22;10580;51.092;6.828;2023-03-04T07:57:43;5.20;7.80
20839;DHT22;10580;51.092;6.828;2023-03-04T08:00:10;5.30;12.40
20839;DHT22;10580;51.092;6.828;2023-03-04T08:02:36;5.30;13.70
20839;DHT22;10580;51.092;6.828;2023-03-04T08:05:01;5.20;16.00
20839;DHT22;10580;51.092;6.828;2023-03-04T08:07:27;5.30;17.10
20839;DHT22;10580;51.092;6.828;2023-03-04T08:09:52;5.30;18.90
20839;DHT22;10580;51.092;6.828;2023-03-04T08:12:18;5.30;21.80
20839;DHT22;10580;51.092;6.828;2023-03-04T08:14:44;5.30;24.30
20839;DHT22;10580;51.092;6.828;2023-03-04T08:17:10;5.30;23.40
20839;DHT22;10580;51.092;6.828;2023-03-04T08:19:35;5.20;30.70
20839;DHT22;10580;51.092;6.828;2023-03-04T08:22:01;5.20;40.70
20839;DHT22;10580;51.092;6.828;2023-03-04T08:24:27;5.20;56.30
20839;DHT22;10580;51.092;6.828;2023-03-04T08:26:53;5.20;52.40
20839;DHT22;10580;51.092;6.828;2023-03-04T08:29:20;5.20;52.80
20839;DHT22;10580;51.092;6.828;2023-03-04T08:31:48;5.30;56.30
20839;DHT22;10580;51.092;6.828;2023-03-04T08:34:13;5.40;58.70
20839;DHT22;10580;51.092;6.828;2023-03-04T08:36:43;5.40;58.50
20839;DHT22;10580;51.092;6.828;2023-03-04T08:39:11;5.50;54.80
20839;DHT22;10580;51.092;6.828;2023-03-04T08:41:39;5.50;52.30
20839;DHT22;10580;51.092;6.828;2023-03-04T08:44:06;5.50;53.50
20839;DHT22;10580;51.092;6.828;2023-03-04T08:46:35;5.60;53.00
20839;DHT22;10580;51.092;6.828;2023-03-04T08:49:01;5.60;63.80
20839;DHT22;10580;51.092;6.828;2023-03-04T08:51:27;5.70;76.90
20839;DHT22;10580;51.092;6.828;2023-03-04T08:53:52;5.80;77.90
20839;DHT22;10580;51.092;6.828;2023-03-04T08:56:18;5.90;78.00
20839;DHT22;10580;51.092;6.828;2023-03-04T08:58:43;6.10;59.60
20839;DHT22;10580;51.092;6.828;2023-03-04T09:01:10;6.20;53.10
20839;DHT22;10580;51.092;6.828;2023-03-04T09:03:37;6.10;47.20
20839;DHT22;10580;51.092;6.828;2023-03-04T09:06:03;6.20;43.60
20839;DHT22;10580;51.092;6.828;2023-03-04T09:08:30;6.30;42.10
20839;DHT22;10580;51.092;6.828;2023-03-04T09:10:56;6.40;48.50
20839;DHT22;10580;51.092;6.828;2023-03-04T09:13:22;6.60;44.30
20839;DHT22;10580;51.092;6.828;2023-03-04T09:15:50;6.90;29.30
20839;DHT22;10580;51.092;6.828;2023-03-04T09:18:18;7.60;29.20
20839;DHT22;10580;51.092;6.828;2023-03-04T09:20:46;8.00;1.00
20839;DHT22;10580;51.092;6.828;2023-03-04T09:23:12;7.80;1.00
20839;DHT22;10580;51.092;6.828;2023-03-04T09:25:38;7.50;1.00
20839;DHT22;10580;51.092;6.828;2023-03-04T09:28:05;7.30;1.00
20839;DHT22;10580;51.092;6.828;2023-03-04T09:30:32;6.90;1.00
20839;DHT22;10580;51.092;6.828;2023-03-04T09:32:57;6.90;1.00
20839;DHT22;10580;51.092;6.828;2023-03-04T09:35:23;6.90;1.00
20839;DHT22;10580;51.092;6.828;2023-03-04T09:37:49;6.90;1.00
20839;DHT22;10580;51.092;6.828;2023-03-04T09:40:21;6.90;1.00
20839;DHT22;10580;51.092;6.828;2023-03-04T09:42:59;6.90;1.00
20839;DHT22;10580;51.092;6.828;2023-03-04T09:45:41;6.80;1.00
20839;DHT22;10580;51.092;6.828;2023-03-04T09:48:13;6.70;1.00
20839;DHT22;10580;51.092;6.828;2023-03-04T09:50:54;6.70;1.00
20839;DHT22;10580;51.092;6.828;2023-03-04T09:53:41;6.70;1.00
20839;DHT22;10580;51.092;6.828;2023-03-04T09:56:11;6.70;1.00
20839;DHT22;10580;51.092;6.828;2023-03-04T09:59:43;6.60;33.80
20839;DHT22;10580;51.092;6.828;2023-03-04T10:01:52;6.50;63.50
20839;DHT22;10580;51.092;6.828;2023-03-04T10:06:57;6.40;82.00
20839;DHT22;10580;51.092;6.828;2023-03-04T10:09:26;6.40;71.20
20839;DHT22;10580;51.092;6.828;2023-03-04T10:14:29;6.60;91.40
20839;DHT22;10580;51.092;6.828;2023-03-04T10:17:13;6.70;60.20
20839;DHT22;10580;51.092;6.828;2023-03-04T10:19:58;6.60;43.90
20839;DHT22;10580;51.092;6.828;2023-03-04T10:22:41;6.50;40.00
20839;DHT22;10580;51.092;6.828;2023-03-04T10:28:00;6.60;48.80
20839;DHT22;10580;51.092;6.828;2023-03-04T10:33:18;6.70;54.30
20839;DHT22;10580;51.092;6.828;2023-03-04T10:35:49;6.80;49.40
20839;DHT22;10580;51.092;6.828;2023-03-04T10:38:17;6.90;44.30
20839;DHT22;10580;51.092;6.828;2023-03-04T10:40:43;7.10;40.30
20839;DHT22;10580;51.092;6.828;2023-03-04T10:43:28;7.20;24.50
20839;DHT22;10580;51.092;6.828;2023-03-04T10:45:56;7.20;11.50
20839;DHT22;10580;51.092;6.828;2023-03-04T10:48:25;7.30;18.50
20839;DHT22;10580;51.092;6.828;2023-03-04T10:50:51;7.50;10.20
20839;DHT22;10580;51.092;6.828;2023-03-04T10:53:32;7.50;1.00
20839;DHT22;10580;51.092;6.828;2023-03-04T10:56:01;7.50;1.00
20839;DHT22;10580;51.092;6.828;2023-03-04T10:58:27;7.50;11.30
20839;DHT22;10580;51.092;6.828;2023-03-04T11:01:04;7.50;1.00
20839;DHT22;10580;51.092;6.828;2023-03-04T11:03:35;7.60;1.00
20839;DHT22;10580;51.092;6.828;2023-03-04T11:06:14;7.60;1.00
20839;DHT22;10580;51.092;6.828;2023-03-04T11:08:41;7.60;1.00
20839;DHT22;10580;51.092;6.828;2023-03-04T11:13:59;7.50;1.00
20839;DHT22;10580;51.092;6.828;2023-03-04T11:16:28;7.50;1.00
20839;DHT22;10580;51.092;6.828;2023-03-04T11:19:03;7.40;1.00
20839;DHT22;10580;51.092;6.828;2023-03-04T11:21:35;7.40;1.00
20839;DHT22;10580;51.092;6.828;2023-03-04T11:24:05;7.40;1.00
20839;DHT22;10580;51.092;6.828;2023-03-04T11:26:49;7.40;1.00
20839;DHT22;10580;51.092;6.828;2023-03-04T11:29:51;7.40;1.00
20839;DHT22;10580;51.092;6.828;2023-03-04T11:32:28;7.40;1.00
20839;DHT22;10580;51.092;6.828;2023-03-04T11:35:00;7.30;1.00
20839;DHT22;10580;51.092;6.828;2023-03-04T11:37:36;7.10;1.00
20839;DHT22;10580;51.092;6.828;2023-03-04T11:40:14;7.10;1.00
20839;DHT22;10580;51.092;6.828;2023-03-04T11:43:05;7.00;2.10
20839;DHT22;10580;51.092;6.828;2023-03-04T11:46:00;7.10;4.90
20839;DHT22;10580;51.092;6.828;2023-03-04T11:51:37;7.40;1.00
20839;DHT22;10580;51.092;6.828;2023-03-04T11:57:29;7.80;1.00
20839;DHT22;10580;51.092;6.828;2023-03-04T12:08:47;8.00;1.00
20839;DHT22;10580;51.092;6.828;2023-03-04T12:11:20;8.00;1.00
20839;DHT22;10580;51.092;6.828;2023-03-04T12:14:01;7.90;1.00
20839;DHT22;10580;51.092;6.828;2023-03-04T12:19:43;7.90;1.00
20839;DHT22;10580;51.092;6.828;2023-03-04T12:30:40;8.30;1.00
20839;DHT22;10580;51.092;6.828;2023-03-04T12:36:23;8.40;1.00
20839;DHT22;10580;51.092;6.828;2023-03-04T12:39:17;8.30;1.00
20839;DHT22;10580;51.092;6.828;2023-03-04T12:44:24;8.00;1.00
20839;DHT22;10580;51.092;6.828;2023-03-04T12:47:02;7.70;1.00
20839;DHT22;10580;51.092;6.828;2023-03-04T12:52:23;7.80;1.00
20839;DHT22;10580;51.092;6.828;2023-03-04T12:55:07;7.90;1.00
20839;DHT22;10580;51.092;6.828;2023-03-04T12:57:37;8.10;1.00
20839;DHT22;10580;51.092;6.828;2023-03-04T13:03:17;8.50;1.00
20839;DHT22;10580;51.092;6.828;2023-03-04T13:06:14;8.60;1.00
20839;DHT22;10580;51.092;6.828;2023-03-04T13:14:29;8.40;1.00
20839;DHT22;10580;51.092;6.828;2023-03-04T13:17:00;8.50;1.00
20839;DHT22;10580;51.092;6.828;2023-03-04T13:19:46;8.30;1.00
20839;DHT22;10580;51.092;6.828;2023-03-04T13:43:48;7.80;1.00
20839;DHT22;10580;51.092;6.828;2023-03-04T13:51:37;7.70;1.00
20839;DHT22;10580;51.092;6.828;2023-03-04T13:56:47;7.60;1.00
20839;DHT22;10580;51.092;6.828;2023-03-04T13:59:25;7.60;1.40
20839;DHT22;10580;51.092;6.828;2023-03-04T14:04:41;7.50;27.60
20839;DHT22;10580;51.092;6.828;2023-03-04T14:07:25;7.50;57.70
20839;DHT22;10580;51.092;6.828;2023-03-04T14:09:58;7.50;78.00
20839;DHT22;10580;51.092;6.828;2023-03-04T14:12:28;7.60;91.80
20839;DHT22;10580;51.092;6.828;2023-03-04T14:17:39;7.80;65.40
20839;DHT22;10580;51.092;6.828;2023-03-04T14:22:53;7.90;18.60
20839;DHT22;10580;51.092;6.828;2023-03-04T14:25:26;8.00;17.20
20839;DHT22;10580;51.092;6.828;2023-03-04T14:28:22;8.00;15.30
20839;DHT22;10580;51.092;6.828;2023-03-04T14:30:52;7.90;10.20
20839;DHT22;10580;51.092;6.828;2023-03-04T14:33:22;7.90;14.60
20839;DHT22;10580;51.092;6.828;2023-03-04T14:35:51;7.80;16.10
20839;DHT22;10580;51.092;6.828;2023-03-04T14:38:36;7.90;27.20
20839;DHT22;10580;51.092;6.828;2023-03-04T14:41:14;7.80;35.70
20839;DHT22;10580;51.092;6.828;2023-03-04T14:44:02;7.80;35.60
20839;DHT22;10580;51.092;6.828;2023-03-04T14:46:45;7.70;37.10
20839;DHT22;10580;51.092;6.828;2023-03-04T14:49:12;7.70;38.80
20839;DHT22;10580;51.092;6.828;2023-03-04T14:54:38;7.60;47.60
20839;DHT22;10580;51.092;6.828;2023-03-04T14:57:23;7.70;51.30
20839;DHT22;10580;51.092;6.828;2023-03-04T14:59:51;7.60;40.90
20839;DHT22;10580;51.092;6.828;2023-03-04T15:02:29;7.60;47.00
20839;DHT22;10580;51.092;6.828;2023-03-04T15:05:10;7.70;49.50
20839;DHT22;10580;51.092;6.828;2023-03-04T15:07:41;7.80;54.80
20839;DHT22;10580;51.092;6.828;2023-03-04T15:10:10;7.90;63.00
20839;DHT22;10580;51.092;6.828;2023-03-04T15:12:39;7.90;40.80
20839;DHT22;10580;51.092;6.828;2023-03-04T15:21:03;7.80;27.20
20839;DHT22;10580;51.092;6.828;2023-03-04T15:23:31;7.70;27.80
20839;DHT22;10580;51.092;6.828;2023-03-04T15:30:01;7.60;46.20
20839;DHT22;10580;51.092;6.828;2023-03-04T15:38:52;7.50;67.90
20839;DHT22;10580;51.092;6.828;2023-03-04T15:41:22;7.50;72.80
20839;DHT22;10580;51.092;6.828;2023-03-04T15:43:49;7.40;69.80
20839;DHT22;10580;51.092;6.828;2023-03-04T15:46:15;7.40;76.00
20839;DHT22;10580;51.092;6.828;2023-03-04T15:48:40;7.40;85.80
20839;DHT22;10580;51.092;6.828;2023-03-04T15:51:14;7.40;93.10
20839;DHT22;10580;51.092;6.828;2023-03-04T15:53:44;7.40;95.70
20839;DHT22;10580;51.092;6.828;2023-03-04T15:56:19;7.30;98.20
20839;DHT22;10580;51.092;6.828;2023-03-04T15:58:53;7.30;99.90
20839;DHT22;10580;51.092;6.828;2023-03-04T16:01:18;7.30;99.90
20839;DHT22;10580;51.092;6.828;2023-03-04T16:03:44;7.30;99.90
20839;DHT22;10580;51.092;6.828;2023-03-04T16:06:15;7.30;99.90
20839;DHT22;10580;51.092;6.828;2023-03-04T16:08:45;7.30;99.90
20839;DHT22;10580;51.092;6.828;2023-03-04T16:11:20;7.30;99.90
20839;DHT22;10580;51.092;6.828;2023-03-04T16:13:47;7.20;99.90
20839;DHT22;10580;51.092;6.828;2023-03-04T16:16:13;7.20;99.90
20839;DHT22;10580;51.092;6.828;2023-03-04T16:18:40;7.20;99.90
20839;DHT22;10580;51.092;6.828;2023-03-04T16:21:07;7.20;99.90
20839;DHT22;10580;51.092;6.828;2023-03-04T16:23:39;7.10;99.90
20839;DHT22;10580;51.092;6.828;2023-03-04T16:26:11;7.10;99.90
20839;DHT22;10580;51.092;6.828;2023-03-04T16:28:39;7.00;99.90
20839;DHT22;10580;51.092;6.828;2023-03-04T16:31:05;7.00;99.90
20839;DHT22;10580;51.092;6.828;2023-03-04T16:33:31;6.90;99.90
20839;DHT22;10580;51.092;6.828;2023-03-04T16:35:57;6.90;99.90
20839;DHT22;10580;51.092;6.828;2023-03-04T16:38:25;6.90;99.90
20839;DHT22;10580;51.092;6.828;2023-03-04T16:40:53;6.90;99.90
20839;DHT22;10580;51.092;6.828;2023-03-04T16:43:20;6.90;99.90
20839;DHT22;10580;51.092;6.828;2023-03-04T16:45:45;6.90;99.90
20839;DHT22;10580;51.092;6.828;2023-03-04T16:48:13;6.90;99.90
20839;DHT22;10580;51.092;6.828;2023-03-04T16:50:39;6.90;99.90
20839;DHT22;10580;51.092;6.828;2023-03-04T16:55:49;6.90;99.90
20839;DHT22;10580;51.092;6.828;2023-03-04T16:58:14;6.80;99.90
20839;DHT22;10580;51.092;6.828;2023-03-04T17:00:40;6.80;99.90
20839;DHT22;10580;51.092;6.828;2023-03-04T17:06:00;6.80;99.90
20839;DHT22;10580;51.092;6.828;2023-03-04T17:08:26;6.80;92.20
20839;DHT22;10580;51.092;6.828;2023-03-04T17:10:51;6.70;75.00
20839;DHT22;10580;51.092;6.828;2023-03-04T17:13:19;6.70;65.60
20839;DHT22;10580;51.092;6.828;2023-03-04T17:15:45;6.70;69.20
20839;DHT22;10580;51.092;6.828;2023-03-04T17:18:11;6.70;57.50
20839;DHT22;10580;51.092;6.828;2023-03-04T17:20:37;6.70;48.40
20839;DHT22;10580;51.092;6.828;2023-03-04T17:23:02;6.70;43.30
20839;DHT22;10580;51.092;6.828;2023-03-04T17:25:31;6.60;43.00
20839;DHT22;10580;51.092;6.828;2023-03-04T17:27:57;6.60;34.40
20839;DHT22;10580;51.092;6.828;2023-03-04T17:30:22;6.60;33.20
20839;DHT22;10580;51.092;6.828;2023-03-04T17:32:48;6.60;32.40
20839;DHT22;10580;51.092;6.828;2023-03-04T17:35:14;6.60;33.70
20839;DHT22;10580;51.092;6.828;2023-03-04T17:37:39;6.60;36.50
20839;DHT22;10580;51.092;6.828;2023-03-04T17:40:07;6.60;33.60
20839;DHT22;10580;51.092;6.828;2023-03-04T17:42:33;6.60;29.50
20839;DHT22;10580;51.092;6.828;2023-03-04T17:44:59;6.60;26.20
20839;DHT22;10580;51.092;6.828;2023-03-04T17:47:25;6.60;23.60
20839;DHT22;10580;51.092;6.828;2023-03-04T17:49:50;6.60;24.90
20839;DHT22;10580;51.092;6.828;2023-03-04T17:52:16;6.60;18.70
20839;DHT22;10580;51.092;6.828;2023-03-04T17:54:44;6.60;16.40
20839;DHT22;10580;51.092;6.828;2023-03-04T17:57:10;6.60;15.50
20839;DHT22;10580;51.092;6.828;2023-03-04T17:59:36;6.60;15.60
20839;DHT22;10580;51.092;6.828;2023-03-04T18:02:02;6.60;16.20